Time;durP1;ratioP1;P1;durP2;ratioP2;P2;SDS_P1;SDS_P2;PMS_P1;PMS_P2;Temp;Humidity;BMP_temperature;BMP_pressure;BME280_temperature;BME280_humidity;BME280_pressure;Samples;Min_cycle;Max_cycle;Signal;HPM_P1;HPM_P2
2022/08/31 00:04:04;;;;;;;6.30;4.65;;;22.50;48.50;;;25.30;35.75;97756.16;5004777;28;20050;-40
2022/08/31 00:06:34;;;;;;;7.47;4.65;;;22.40;48.90;;;25.05;37.00;97767.53;5036250;28;20042;-41
2022/08/31 00:09:04;;;;;;;6.65;5.43;;;22.20;51.10;;;24.81;38.47;97772.34;5004565;28;20046;-40
2022/08/31 00:11:34;;;;;;;6.68;4.20;;;21.80;54.40;;;24.72;38.83;97774.69;5004676;28;20046;-40
2022/08/31 00:14:08;;;;;;;11.20;4.55;;;21.70;55.20;;;24.65;38.70;97769.41;5004507;28;20050;-40
2022/08/31 00:16:43;;;;;;;4.90;4.22;;;21.60;54.80;;;24.50;39.60;97766.41;5004468;28;20050;-40
2022/08/31 00:19:11;;;;;;;5.88;4.60;;;21.50;55.40;;;24.17;42.24;97778.94;5004758;28;20060;-40
2022/08/31 00:21:39;;;;;;;6.35;5.75;;;21.40;59.30;;;23.92;43.99;97796.47;5004396;28;20220;-40
2022/08/31 00:24:09;;;;;;;9.45;6.05;;;21.30;64.50;;;23.86;44.58;97774.84;5004253;28;20050;-40
2022/08/31 00:26:37;;;;;;;6.55;5.13;;;21.20;64.20;;;23.84;45.13;97776.97;5004193;28;20252;-40
2022/08/31 00:29:05;;;;;;;6.28;5.13;;;21.10;65.20;;;23.58;47.26;97781.91;5003991;28;20052;-40
2022/08/31 00:31:33;;;;;;;10.20;5.93;;;21.00;72.00;;;23.83;46.82;97786.22;5004786;28;20065;-40
2022/08/31 00:34:03;;;;;;;8.30;5.45;;;21.00;71.70;;;23.74;47.37;97789.28;5004232;28;20058;-40
2022/08/31 00:36:32;;;;;;;6.68;5.60;;;20.90;74.70;;;23.81;47.30;97789.19;5003526;28;20064;-40
2022/08/31 00:39:00;;;;;;;6.03;5.43;;;20.90;72.20;;;23.68;48.13;97792.97;5003469;28;20054;-40
2022/08/31 00:41:30;;;;;;;7.18;5.75;;;20.80;73.20;;;23.52;48.53;97793.75;5003303;28;20056;-40
2022/08/31 00:44:03;;;;;;;9.20;5.72;;;20.80;74.30;;;23.55;48.52;97804.13;5003310;28;20060;-40
2022/08/31 00:46:36;;;;;;;5.97;5.15;;;20.70;76.40;;;23.59;48.55;97808.84;5003426;28;20057;-40
2022/08/31 00:49:29;;;;;;;9.07;6.20;;;20.70;74.90;;;23.57;48.77;97808.25;5003688;28;20042;-40
2022/08/31 00:52:11;;;;;;;6.82;6.13;;;20.70;77.00;;;23.39;50.59;97808.41;5033971;28;20054;-40
2022/08/31 00:54:51;;;;;;;6.20;5.60;;;20.70;78.40;;;23.40;49.59;97796.50;5018427;28;20064;-40
2022/08/31 00:57:20;;;;;;;6.68;5.60;;;20.60;78.40;;;23.51;49.07;97792.91;5003762;28;20240;-40
2022/08/31 01:00:08;;;;;;;6.15;5.18;;;20.60;77.20;;;23.61;48.57;97794.19;5016071;28;20084;-40
2022/08/31 01:02:36;;;;;;;7.70;5.75;;;20.70;76.50;;;23.53;49.11;97792.66;5003445;28;20046;-40
2022/08/31 01:05:06;;;;;;;7.65;5.57;;;20.60;76.80;;;23.50;49.17;97791.25;5034173;28;20050;-40
2022/08/31 01:07:36;;;;;;;8.27;5.38;;;20.60;76.70;;;23.55;49.04;97783.22;5003298;28;20042;-40
2022/08/31 01:10:04;;;;;;;8.15;5.53;;;20.60;76.40;;;23.51;48.69;97790.19;5034898;28;20046;-40
2022/08/31 01:12:32;;;;;;;8.75;6.45;;;20.60;76.20;;;23.55;48.37;97785.94;5003310;28;20054;-40
2022/08/31 01:15:05;;;;;;;6.68;5.35;;;20.60;75.20;;;23.53;48.43;97784.50;5018866;28;20054;-40
2022/08/31 01:17:35;;;;;;;7.07;5.57;;;20.60;75.50;;;23.53;48.34;97785.31;5034083;28;20050;-40
2022/08/31 01:20:29;;;;;;;6.93;5.80;;;20.60;75.30;;;23.55;47.92;97783.22;5034687;28;20050;-40
2022/08/31 01:23:11;;;;;;;7.57;5.53;;;20.60;75.40;;;23.50;48.20;97774.97;5002740;28;20352;-40
2022/08/31 01:25:43;;;;;;;5.95;5.35;;;20.60;74.80;;;23.50;47.80;97772.25;5034704;28;20060;-40
2022/08/31 01:28:11;;;;;;;6.53;5.30;;;20.60;73.50;;;23.45;47.59;97766.69;5017938;28;20054;-40
2022/08/31 01:30:42;;;;;;;5.80;4.60;;;20.60;72.00;;;23.38;47.77;97764.13;5002516;28;20054;-40
2022/08/31 01:33:11;;;;;;;6.75;4.78;;;20.60;71.80;;;23.35;47.76;97761.06;5033903;28;20050;-40
2022/08/31 01:35:43;;;;;;;6.35;5.47;;;20.50;72.50;;;23.27;47.78;97762.28;5002205;28;20056;-40
2022/08/31 01:38:12;;;;;;;6.95;5.30;;;20.50;73.00;;;23.25;47.63;97758.16;5034098;28;20061;-40
2022/08/31 01:40:54;;;;;;;7.90;5.68;;;20.40;73.00;;;23.25;48.06;97763.59;5001703;28;20263;-40
2022/08/31 01:43:24;;;;;;;7.20;5.53;;;20.40;73.00;;;23.18;47.76;97766.41;5002364;28;20050;-40
2022/08/31 01:45:51;;;;;;;7.22;6.03;;;20.30;72.80;;;23.15;48.03;97765.00;5002839;28;20046;-40
2022/08/31 01:48:22;;;;;;;6.53;5.05;;;20.30;73.20;;;23.05;48.44;97775.66;5034758;28;20054;-40
2022/08/31 01:50:50;;;;;;;7.70;5.28;;;20.20;74.30;;;23.00;48.81;97770.91;5001345;28;20348;-40
2022/08/31 01:53:18;;;;;;;6.82;5.38;;;20.10;74.50;;;23.04;48.71;97782.16;5002475;28;20046;-40
2022/08/31 01:55:46;;;;;;;7.65;6.50;;;20.10;74.50;;;23.05;48.58;97797.38;5017891;28;20056;-40
2022/08/31 01:58:14;;;;;;;6.72;4.88;;;20.10;75.10;;;23.00;48.61;97798.06;5003994;28;20062;-40
2022/08/31 02:01:03;;;;;;;6.68;5.90;;;20.00;75.40;;;22.84;49.46;97804.22;5000780;28;20072;-40
2022/08/31 02:03:51;;;;;;;8.82;6.28;;;19.90;76.80;;;22.80;49.60;97813.88;5001756;28;20077;-40
2022/08/31 02:06:24;;;;;;;6.90;5.53;;;19.70;77.90;;;22.79;49.71;97814.94;5002152;28;20062;-40
2022/08/31 02:08:52;;;;;;;6.25;5.00;;;19.70;78.50;;;22.79;49.77;97810.31;5002375;28;20086;-40
2022/08/31 02:11:20;;;;;;;8.23;6.05;;;19.80;78.40;;;22.84;49.49;97809.63;5001805;28;20054;-40
2022/08/31 02:13:48;;;;;;;7.57;4.80;;;19.80;77.70;;;22.84;49.30;97806.06;5002425;28;20050;-40
2022/08/31 02:16:16;;;;;;;8.00;5.90;;;19.80;77.60;;;22.85;49.40;97808.56;5002314;28;20050;-40
2022/08/31 02:18:44;;;;;;;8.20;6.03;;;19.80;77.50;;;22.80;49.40;97812.00;5005079;28;20261;-40
2022/08/31 02:21:13;;;;;;;7.38;5.20;;;19.80;77.50;;;22.74;49.61;97801.22;5005985;28;20053;-40
2022/08/31 02:23:41;;;;;;;10.00;6.45;;;19.70;78.00;;;22.76;49.36;97813.53;5006566;28;20050;-40
2022/08/31 02:26:10;;;;;;;8.82;5.55;;;19.70;77.80;;;22.78;49.51;97810.59;5005614;28;20057;-40
2022/08/31 02:28:38;;;;;;;6.60;5.03;;;19.80;77.70;;;22.76;49.39;97799.97;5037781;28;20252;-40
2022/08/31 02:31:06;;;;;;;9.65;5.55;;;19.80;77.80;;;22.79;49.46;97806.78;5005448;28;20042;-40
2022/08/31 02:33:44;;;;;;;6.63;5.47;;;19.80;77.90;;;22.72;49.89;97808.78;5005453;28;20046;-40
2022/08/31 02:36:12;;;;;;;8.20;6.32;;;19.70;78.90;;;22.71;49.92;97802.53;5006067;28;20046;-40
2022/08/31 02:38:40;;;;;;;7.40;5.75;;;19.70;78.70;;;22.72;49.99;97796.06;5005978;28;20034;-40
2022/08/31 02:41:09;;;;;;;8.50;6.43;;;19.70;78.20;;;22.74;49.99;97791.22;5006013;28;20042;-40
2022/08/31 02:43:39;;;;;;;6.28;5.68;;;19.70;78.30;;;22.69;50.04;97798.44;5021308;28;20054;-40
2022/08/31 02:46:07;;;;;;;8.43;5.80;;;19.70;78.60;;;22.71;49.46;97788.16;5004125;28;20049;-40
2022/08/31 02:48:41;;;;;;;10.52;5.57;;;19.70;78.60;;;22.65;49.90;97795.34;5005291;28;20046;-40
2022/08/31 02:51:16;;;;;;;5.68;5.15;;;19.70;78.60;;;22.68;49.63;97794.03;5005618;28;20050;-40
2022/08/31 02:53:46;;;;;;;6.63;5.28;;;19.60;79.30;;;22.59;50.27;97790.88;5005516;28;20046;-40
2022/08/31 02:56:15;;;;;;;7.32;5.57;;;19.50;79.40;;;22.59;50.13;97796.28;5005551;28;20053;-40
2022/08/31 02:58:42;;;;;;;7.53;5.57;;;19.50;79.60;;;22.55;50.53;97795.13;5005603;28;20345;-39
2022/08/31 03:01:10;;;;;;;6.47;5.18;;;19.50;79.90;;;22.57;50.08;97790.28;5004960;28;20056;-40
2022/08/31 03:03:39;;;;;;;8.15;5.88;;;19.50;79.90;;;22.55;50.47;97787.78;5005106;28;20080;-40
2022/08/31 03:06:13;;;;;;;6.25;5.13;;;19.50;79.80;;;22.62;49.93;97782.25;5004899;28;20046;-40
2022/08/31 03:08:41;;;;;;;7.07;5.63;;;19.70;79.30;;;22.62;50.30;97784.97;5020325;28;20058;-40
2022/08/31 03:11:09;;;;;;;6.90;5.65;;;19.70;79.00;;;22.65;49.86;97789.09;5005160;28;20061;-40
2022/08/31 03:13:40;;;;;;;10.75;5.50;;;19.70;78.70;;;22.66;50.08;97791.56;5005252;28;20073;-40
2022/08/31 03:16:10;;;;;;;6.97;5.93;;;19.70;78.50;;;22.66;49.76;97786.13;5005562;28;20061;-40
2022/08/31 03:18:38;;;;;;;8.00;5.28;;;19.70;78.20;;;22.72;49.81;97790.66;5005108;28;20376;-40
2022/08/31 03:21:07;;;;;;;7.07;5.50;;;19.80;77.90;;;22.68;50.11;97789.47;5005101;28;20248;-40
2022/08/31 03:23:36;;;;;;;7.15;5.30;;;19.70;78.20;;;22.67;49.82;97793.22;5020584;28;20046;-40
2022/08/31 03:26:04;;;;;;;5.57;4.90;;;19.70;78.50;;;22.68;50.16;97785.91;5004814;28;20046;-40
2022/08/31 03:28:37;;;;;;;11.23;6.60;;;19.70;78.40;;;22.72;49.98;97785.22;5037077;28;20050;-40
2022/08/31 03:31:27;;;;;;;7.45;5.70;;;19.80;78.00;;;22.78;49.90;97786.97;5004987;28;20062;-40
2022/08/31 03:33:56;;;;;;;6.68;5.88;;;19.80;77.90;;;22.76;49.60;97788.25;5020647;28;20062;-40
2022/08/31 03:36:24;;;;;;;6.93;5.32;;;19.80;78.00;;;22.74;50.15;97784.97;4988630;28;20226;-40
2022/08/31 03:38:53;;;;;;;6.70;5.45;;;19.80;78.00;;;22.73;49.75;97788.75;5020038;28;20395;-39
2022/08/31 03:41:24;;;;;;;8.68;5.45;;;19.80;78.10;;;22.75;50.15;97789.34;5004728;28;20050;-40
2022/08/31 03:43:53;;;;;;;9.05;5.60;;;19.80;78.20;;;22.73;50.34;97789.56;5004212;28;20245;-39
2022/08/31 03:46:22;;;;;;;6.10;5.32;;;19.80;78.40;;;22.72;50.32;97790.66;5004585;28;20379;-40
2022/08/31 03:48:50;;;;;;;7.35;5.82;;;19.80;79.10;;;22.72;50.43;97804.22;5003744;28;20064;-40
2022/08/31 03:51:19;;;;;;;7.93;5.40;;;19.70;79.40;;;22.75;50.74;97801.00;5004588;28;20050;-40
2022/08/31 03:53:47;;;;;;;7.40;5.40;;;19.80;79.50;;;22.71;50.57;97796.31;5003378;28;20099;-40
2022/08/31 03:56:20;;;;;;;6.18;5.18;;;19.80;79.60;;;22.70;50.62;97800.06;5004316;28;20260;-40
2022/08/31 03:58:50;;;;;;;5.70;5.20;;;19.70;79.70;;;22.69;50.33;97799.25;5004063;28;20252;-40
2022/08/31 04:01:43;;;;;;;8.05;5.38;;;19.70;79.90;;;22.73;50.14;97795.00;5003102;28;20051;-40
2022/08/31 04:04:30;;;;;;;7.57;5.60;;;19.70;80.10;;;22.73;50.66;97796.88;5009218;28;20044;-39
2022/08/31 04:07:18;;;;;;;8.07;5.60;;;19.70;80.40;;;22.69;50.87;97784.84;5007492;28;20244;-40
2022/08/31 04:10:05;;;;;;;7.15;5.78;;;19.70;80.70;;;22.69;50.85;97796.53;5005324;28;20049;-40
2022/08/31 04:12:56;;;;;;;7.60;5.15;;;19.70;81.10;;;22.68;50.93;97799.47;5004567;28;20050;-40
2022/08/31 04:15:48;;;;;;;7.28;5.57;;;19.60;82.20;;;22.57;51.20;97793.81;5019383;28;20090;-40
2022/08/31 04:18:36;;;;;;;7.88;6.28;;;19.50;83.00;;;22.55;50.94;97795.13;5010130;28;20060;-40
2022/08/31 04:21:13;;;;;;;8.55;5.75;;;19.50;83.10;;;22.57;51.33;97795.72;5003957;28;20060;-40
2022/08/31 04:23:41;;;;;;;7.13;5.10;;;19.60;83.30;;;22.54;51.41;97799.69;5036569;28;20069;-40
2022/08/31 04:26:29;;;;;;;8.85;6.03;;;19.60;83.40;;;22.54;51.46;97799.69;5003493;28;20058;-40
2022/08/31 04:29:00;;;;;;;8.00;6.00;;;19.60;83.80;;;22.50;51.81;97803.13;5019041;28;20276;-40
2022/08/31 04:31:29;;;;;;;8.77;6.82;;;19.50;84.10;;;22.47;51.61;97804.44;5005032;28;20050;-39
2022/08/31 04:33:59;;;;;;;7.55;6.05;;;19.50;84.30;;;22.51;51.93;97804.78;5003838;28;20046;-39
2022/08/31 04:36:27;;;;;;;7.57;5.75;;;19.60;85.30;;;22.51;52.34;97804.78;5003266;28;20058;-39
2022/08/31 04:38:59;;;;;;;9.43;5.60;;;19.60;85.50;;;22.53;52.39;97811.63;5002849;28;20053;-40
2022/08/31 04:41:31;;;;;;;7.50;5.70;;;19.60;85.70;;;22.60;51.66;97814.22;5003060;28;20057;-40
2022/08/31 04:44:01;;;;;;;6.97;5.93;;;19.70;85.70;;;22.60;51.68;97809.63;5018853;28;20050;-40
2022/08/31 04:46:34;;;;;;;7.93;6.00;;;19.70;85.20;;;22.61;51.69;97816.69;5019009;28;20084;-40
2022/08/31 04:49:03;;;;;;;7.38;6.13;;;19.70;85.40;;;22.63;51.47;97813.75;5004193;28;20056;-40
2022/08/31 04:51:34;;;;;;;6.93;6.20;;;19.70;85.00;;;22.63;51.71;97821.06;5003252;28;20050;-40
2022/08/31 04:54:07;;;;;;;7.97;5.82;;;19.60;84.60;;;22.63;51.94;97821.06;5003091;28;20050;-40
2022/08/31 04:56:42;;;;;;;8.05;6.22;;;19.70;84.80;;;22.57;51.69;97831.78;5003255;28;20058;-40
2022/08/31 04:59:17;;;;;;;8.32;5.88;;;19.60;84.90;;;22.54;52.02;97832.25;5002791;28;20050;-39
2022/08/31 05:02:05;;;;;;;6.93;6.03;;;19.60;85.20;;;22.56;51.95;97832.84;5015882;28;20050;-40
2022/08/31 05:04:43;;;;;;;7.65;5.88;;;19.60;86.10;;;22.60;52.05;97835.91;5003664;28;20054;-40
2022/08/31 05:07:11;;;;;;;6.93;6.13;;;19.60;85.60;;;22.64;51.65;97841.72;5004399;28;20054;-39
2022/08/31 05:09:39;;;;;;;6.43;5.72;;;19.70;85.20;;;22.65;51.68;97843.38;5002553;28;20241;-40
2022/08/31 05:12:07;;;;;;;8.05;5.47;;;19.70;85.10;;;22.65;51.53;97848.78;4986679;28;20280;-39
2022/08/31 05:14:36;;;;;;;6.97;6.28;;;19.70;85.20;;;22.64;51.95;97850.66;5018428;28;20058;-40
2022/08/31 05:17:14;;;;;;;6.15;5.32;;;19.70;84.70;;;22.65;52.07;97855.03;5002598;28;20072;-40
2022/08/31 05:19:43;;;;;;;7.57;5.47;;;19.80;84.90;;;22.66;52.02;97856.69;5002483;28;20065;-40
2022/08/31 05:22:13;;;;;;;7.07;6.35;;;19.80;84.90;;;22.66;51.73;97859.38;5002693;28;20060;-40
2022/08/31 05:24:43;;;;;;;7.57;6.43;;;19.80;85.10;;;22.68;51.68;97859.16;5003031;28;20035;-40
2022/08/31 05:27:12;;;;;;;7.50;6.20;;;19.80;84.80;;;22.66;51.88;97858.56;5002415;28;20050;-39
2022/08/31 05:29:40;;;;;;;9.38;6.30;;;19.80;84.70;;;22.67;51.92;97862.97;5035071;28;20267;-40
2022/08/31 05:32:29;;;;;;;7.03;6.32;;;19.80;85.00;;;22.69;51.91;97861.66;5021981;28;20057;-40
2022/08/31 05:34:59;;;;;;;7.63;6.00;;;19.80;85.00;;;22.69;52.14;97867.09;5002315;28;20052;-40
2022/08/31 05:37:27;;;;;;;8.30;6.20;;;19.80;85.50;;;22.68;52.32;97868.16;5002766;28;20046;-39
2022/08/31 05:39:55;;;;;;;7.70;6.38;;;19.80;85.70;;;22.68;52.25;97865.44;5002587;28;20046;-39
2022/08/31 05:42:24;;;;;;;7.63;6.20;;;19.80;86.10;;;22.69;52.09;97877.13;5002615;28;20046;-39
2022/08/31 05:44:51;;;;;;;8.20;6.25;;;19.80;86.20;;;22.68;52.39;97870.88;5034821;28;20046;-40
2022/08/31 05:47:19;;;;;;;7.97;6.80;;;19.80;86.50;;;22.70;52.42;97873.31;4999544;28;20455;-40
2022/08/31 05:49:48;;;;;;;7.05;5.90;;;19.80;86.80;;;22.69;52.30;97874.41;5002117;28;20046;-40
2022/08/31 05:52:19;;;;;;;8.57;7.05;;;19.80;86.80;;;22.65;52.36;97875.94;5001080;28;20046;-40
2022/08/31 05:54:52;;;;;;;8.55;5.45;;;19.70;87.60;;;22.60;52.41;97879.31;5001804;28;20060;-40
2022/08/31 05:57:20;;;;;;;7.25;5.68;;;19.60;89.00;;;22.55;52.73;97880.03;5002293;28;20375;-39
2022/08/31 05:59:54;;;;;;;7.80;6.65;;;19.50;90.50;;;22.51;52.88;97878.03;5001502;28;20076;-40
2022/08/31 06:02:26;;;;;;;12.30;6.93;;;19.50;91.50;;;22.49;53.18;97880.97;5001884;28;20058;-40
2022/08/31 06:04:56;;;;;;;9.18;7.15;;;19.50;93.00;;;22.51;53.39;97878.84;5001527;28;20042;-39
2022/08/31 06:07:25;;;;;;;8.15;6.85;;;19.50;92.90;;;22.54;53.51;97874.84;5001921;28;20146;-40
2022/08/31 06:09:57;;;;;;;10.60;7.53;;;19.50;92.60;;;22.55;53.58;97882.75;5001948;28;20050;-40
2022/08/31 06:12:25;;;;;;;9.40;7.43;;;19.60;93.30;;;22.56;53.28;97881.66;5002519;28;20050;-39
2022/08/31 06:14:54;;;;;;;7.70;6.90;;;19.60;93.50;;;22.55;53.62;97880.03;5001553;28;20054;-39
2022/08/31 06:17:23;;;;;;;9.15;6.50;;;19.60;93.60;;;22.57;53.32;97887.94;5001930;28;20230;-40
2022/08/31 06:19:51;;;;;;;7.65;6.68;;;19.60;93.80;;;22.58;53.47;97890.41;5034712;28;20058;-40
2022/08/31 06:22:19;;;;;;;7.57;6.60;;;19.60;93.70;;;22.58;53.70;97887.69;5001804;28;20050;-40
2022/08/31 06:24:51;;;;;;;11.15;6.82;;;19.70;94.20;;;22.58;53.79;97895.81;5001580;28;20053;-40
2022/08/31 06:27:19;;;;;;;7.93;6.97;;;19.70;94.20;;;22.58;53.77;97895.00;5001627;28;20270;-40
2022/08/31 06:29:50;;;;;;;9.05;6.78;;;19.60;94.00;;;22.52;53.92;97901.38;5017578;28;20050;-39
2022/08/31 06:32:19;;;;;;;7.53;6.60;;;19.60;95.10;;;22.53;54.07;97903.84;5001905;28;20050;-40
2022/08/31 06:34:54;;;;;;;12.55;7.25;;;19.50;96.80;;;22.54;54.14;97907.38;5033733;28;20356;-39
2022/08/31 06:37:41;;;;;;;9.77;7.70;;;19.60;97.40;;;22.54;54.40;97915.53;5002013;28;20386;-39
2022/08/31 06:40:42;;;;;;;8.02;7.22;;;19.50;99.20;;;22.53;54.56;97922.84;5001451;28;20061;-40
2022/08/31 06:43:46;;;;;;;9.67;7.27;;;19.50;99.90;;;22.50;54.60;97922.47;5040194;28;20237;-40
2022/08/31 06:46:37;;;;;;;9.40;7.95;;;19.40;99.90;;;22.41;55.12;97928.22;4977439;28;20050;-40
2022/08/31 06:49:25;;;;;;;8.88;7.28;;;19.30;99.90;;;22.26;56.00;97927.81;5017233;28;20060;-40
2022/08/31 06:51:53;;;;;;;8.60;7.68;;;19.20;99.90;;;22.22;56.74;97930.13;5002002;28;20244;-40
2022/08/31 06:54:21;;;;;;;8.90;7.95;;;19.20;99.90;;;22.20;56.74;97923.28;5001658;28;20062;-39
2022/08/31 06:57:16;;;;;;;11.40;7.68;;;19.10;99.90;;;22.22;56.74;97918.47;5005949;28;20056;-39
2022/08/31 06:59:59;;;;;;;9.48;8.43;;;19.20;99.90;;;22.22;56.63;97918.47;5003607;28;20240;-39
2022/08/31 07:02:40;;;;;;;11.55;8.48;;;19.20;99.90;;;22.20;57.02;97910.56;5001651;28;20064;-39
2022/08/31 07:05:08;;;;;;;8.82;7.93;;;19.20;99.90;;;22.22;57.46;97913.84;5020303;28;20048;-40
2022/08/31 07:07:43;;;;;;;11.63;8.57;;;19.30;99.90;;;22.21;57.57;97916.78;5004929;28;20054;-40
2022/08/31 07:10:11;;;;;;;10.40;8.05;;;19.20;99.90;;;22.15;57.71;97909.59;5004679;28;20050;-39
2022/08/31 07:12:40;;;;;;;9.60;8.10;;;19.10;99.90;;;22.10;57.19;97909.44;5037861;28;20064;-39
2022/08/31 07:15:10;;;;;;;11.52;8.63;;;19.10;99.90;;;22.06;57.68;97903.63;5037205;28;20076;-40
2022/08/31 07:17:38;;;;;;;13.88;8.55;;;19.00;99.90;;;22.08;57.56;97904.25;5037138;28;20061;-39
2022/08/31 07:20:08;;;;;;;10.43;8.82;;;19.10;99.90;;;22.06;57.99;97895.50;5004466;28;20057;-39
2022/08/31 07:22:36;;;;;;;11.65;8.00;;;19.10;99.90;;;22.09;57.54;97899.66;5004800;28;20054;-39
2022/08/31 07:25:21;;;;;;;10.52;7.70;;;19.10;99.90;;;22.15;56.87;97894.13;5020547;28;20058;-39
2022/08/31 07:27:54;;;;;;;13.32;7.97;;;19.10;99.90;;;22.17;57.33;97896.63;5037611;28;20080;-39
2022/08/31 07:30:22;;;;;;;;;;;19.20;99.90;;;22.33;55.75;97897.88;4989286;28;20052;-39
2022/08/31 07:32:51;;;;;;;10.43;7.32;;;19.20;99.90;;;22.27;55.67;97904.22;5004318;28;19918;-40
2022/08/31 07:35:24;;;;;;;9.30;7.40;;;19.10;99.90;;;22.10;56.35;97912.13;5020120;28;20056;-40
2022/08/31 07:43:40;;;;;;;9.05;7.45;;;18.90;99.90;;;21.93;57.17;97925.50;5004077;28;20057;-39
2022/08/31 07:46:09;;;;;;;10.23;9.10;;;18.90;99.90;;;21.96;56.71;97922.34;5004496;28;20060;-39
2022/08/31 07:48:37;;;;;;;14.23;7.68;;;19.00;99.90;;;21.92;56.39;97921.13;5004348;28;20054;-39
2022/08/31 07:51:23;;;;;;;10.30;8.00;;;18.90;99.90;;;21.87;57.37;97924.53;5004110;28;20060;-40
2022/08/31 07:54:07;;;;;;;11.77;8.73;;;18.80;99.90;;;21.90;56.85;97931.38;5018048;28;20060;-40
2022/08/31 07:56:52;;;;;;;11.75;8.48;;;18.80;99.90;;;21.85;56.95;97925.81;5004306;28;20058;-40
2022/08/31 07:59:22;;;;;;;15.73;8.82;;;18.80;99.90;;;21.91;56.82;97933.06;5004203;28;20053;-40
2022/08/31 08:01:54;;;;;;;10.82;7.97;;;18.90;99.90;;;21.97;57.07;97934.84;5003333;28;20050;-40
2022/08/31 08:04:24;;;;;;;8.82;7.18;;;19.00;99.90;;;22.09;56.15;97929.47;5036065;28;20050;-40
2022/08/31 08:07:18;;;;;;;8.60;7.70;;;19.10;99.90;;;22.17;56.42;97938.13;5004060;28;20058;-40
2022/08/31 08:10:12;;;;;;;8.00;7.13;;;19.20;99.90;;;22.23;55.90;97939.09;5020050;28;20055;-40
2022/08/31 08:12:55;;;;;;;9.30;7.55;;;19.20;99.90;;;22.22;55.32;97940.16;5003966;28;20057;-40
2022/08/31 08:15:51;;;;;;;8.55;6.45;;;19.20;99.90;;;22.30;55.37;97949.88;5005576;28;20062;-40
2022/08/31 08:18:28;;;;;;;8.00;7.20;;;19.20;99.90;;;22.32;54.92;97945.06;5004703;28;20061;-40
2022/08/31 08:20:59;;;;;;;7.83;7.00;;;19.40;99.90;;;22.35;54.72;97953.56;5003951;28;20070;-40
2022/08/31 08:23:29;;;;;;;7.80;6.10;;;19.40;99.90;;;22.34;54.03;97954.63;5003759;28;20234;-40
2022/08/31 08:26:33;;;;;;;9.40;7.28;;;19.40;99.90;;;22.36;53.27;97952.50;5003405;28;20072;-40
2022/08/31 08:29:07;;;;;;;10.05;6.45;;;19.40;99.90;;;22.34;53.53;97951.09;5019207;28;20054;-40
2022/08/31 08:31:43;;;;;;;7.15;5.90;;;19.40;99.90;;;22.34;52.87;97957.31;5003891;28;20276;-40
2022/08/31 08:34:11;;;;;;;6.38;5.65;;;19.40;99.90;;;22.35;53.15;97958.16;5002635;28;20046;-40
2022/08/31 08:36:39;;;;;;;10.10;7.30;;;19.40;99.90;;;22.35;52.98;97955.44;5003642;28;20050;-40
2022/08/31 08:39:09;;;;;;;8.07;6.80;;;19.40;99.90;;;22.29;52.74;97950.94;5019566;28;20356;-40
2022/08/31 08:41:46;;;;;;;11.55;6.93;;;19.30;99.90;;;22.34;52.30;97957.31;5003408;28;20061;-40
2022/08/31 08:44:16;;;;;;;6.85;6.15;;;19.30;99.90;;;22.36;51.93;97962.53;5018965;28;20137;-40
2022/08/31 08:47:05;;;;;;;7.28;6.55;;;19.40;99.90;;;22.46;52.11;97970.13;5033600;28;20060;-40
2022/08/31 08:49:50;;;;;;;6.55;5.57;;;19.50;99.90;;;22.50;52.00;97961.28;5016425;28;20060;-40
2022/08/31 08:52:28;;;;;;;10.75;6.70;;;19.60;99.90;;;22.56;51.76;97959.53;5018418;28;20058;-40
2022/08/31 08:55:07;;;;;;;8.18;6.75;;;19.60;99.90;;;22.60;52.23;97960.72;5003174;28;20058;-40
2022/08/31 08:57:41;;;;;;;9.65;6.35;;;19.70;99.90;;;22.62;51.59;97964.03;5003525;28;20058;-40
2022/08/31 09:00:18;;;;;;;7.10;6.10;;;19.70;99.90;;;22.67;51.26;97963.34;5018518;28;20050;-40
2022/08/31 09:03:38;;;;;;;7.07;6.35;;;19.80;97.20;;;22.69;51.71;97970.19;5003033;28;20060;-40
2022/08/31 09:06:53;;;;;;;8.88;6.78;;;19.80;99.70;;;22.72;50.80;97975.16;5003406;28;20372;-40
2022/08/31 09:10:00;;;;;;;11.48;6.78;;;19.70;96.70;;;22.58;50.63;97977.22;5018376;28;20050;-40
2022/08/31 09:13:02;;;;;;;7.18;6.47;;;19.60;97.00;;;22.58;50.91;97973.69;5002766;28;20057;-40
2022/08/31 09:15:52;;;;;;;7.22;6.03;;;19.50;98.40;;;22.57;50.72;97975.59;5002927;28;20061;-40
2022/08/31 09:19:05;;;;;;;7.05;6.05;;;19.50;98.10;;;22.55;51.01;97974.16;5002208;28;20228;-40
2022/08/31 09:21:54;;;;;;;7.75;7.03;;;19.60;96.60;;;22.51;50.12;97973.78;5018311;28;20245;-40
2022/08/31 09:24:29;;;;;;;8.75;6.85;;;19.50;95.30;;;22.51;50.16;97973.78;5017420;28;20056;-40
2022/08/31 09:27:49;;;;;;;8.63;5.70;;;19.40;95.00;;;22.49;49.88;97980.50;5002804;28;20054;-40
2022/08/31 09:30:50;;;;;;;8.90;6.43;;;19.40;95.20;;;22.57;50.19;97977.47;5002189;28;20076;-40
2022/08/31 09:33:30;;;;;;;11.27;6.45;;;19.60;95.10;;;22.72;50.14;97977.88;5002428;28;20061;-39
2022/08/31 09:36:21;;;;;;;7.45;6.25;;;19.80;94.40;;;22.66;49.69;97984.22;5002995;28;20050;-40
2022/08/31 09:38:50;;;;;;;7.47;6.68;;;19.80;90.00;;;22.76;49.75;97976.34;5002839;28;20053;-40
2022/08/31 09:41:37;;;;;;;12.93;6.15;;;19.90;91.80;;;22.73;49.33;97978.69;5002915;28;20066;-40
2022/08/31 09:44:34;;;;;;;7.43;6.15;;;19.90;89.60;;;22.92;49.86;97983.00;5033306;28;20050;-40
2022/08/31 09:47:13;;;;;;;8.20;6.20;;;20.10;91.00;;;23.06;49.61;97985.53;5002760;28;20042;-40
2022/08/31 09:49:54;;;;;;;9.70;7.50;;;20.30;90.90;;;23.04;48.73;97987.66;5031643;28;20052;-40
2022/08/31 09:55:24;;;;;;;7.45;6.57;;;20.30;87.00;;;23.17;48.23;97995.59;5011069;28;20061;-40
2022/08/31 09:58:03;;;;;;;8.02;5.88;;;20.30;87.10;;;23.14;47.89;97986.00;5033212;28;20341;-40
2022/08/31 10:00:40;;;;;;;7.72;5.82;;;20.30;84.00;;;23.18;47.91;97991.81;5002098;28;20050;-40
2022/08/31 10:03:20;;;;;;;9.32;7.18;;;20.30;85.00;;;23.27;47.89;97992.31;5033630;28;20252;-40
2022/08/31 10:05:51;;;;;;;9.68;6.28;;;20.40;83.80;;;23.22;47.74;97987.56;5031835;28;20218;-40
2022/08/31 10:08:56;;;;;;;10.43;6.25;;;20.40;85.90;;;23.40;48.08;97989.38;5002456;28;20341;-40
2022/08/31 10:11:31;;;;;;;7.38;5.75;;;20.60;84.60;;;23.57;47.70;97984.03;5028223;28;20048;-40
2022/08/31 10:14:49;;;;;;;7.05;6.10;;;20.80;83.60;;;23.65;47.88;97977.41;5002956;28;20050;-40
2022/08/31 10:17:45;;;;;;;7.43;6.28;;;20.90;83.10;;;23.70;47.53;97985.69;5002591;28;20069;-40
2022/08/31 10:20:30;;;;;;;7.45;6.65;;;21.00;81.90;;;23.87;46.89;97985.84;5031076;28;20052;-41
2022/08/31 10:23:25;;;;;;;7.22;6.47;;;21.10;79.90;;;23.92;47.06;97977.78;5002400;28;20056;-40
2022/08/31 10:26:09;;;;;;;7.25;6.13;;;21.10;81.60;;;24.00;46.78;97982.00;5030384;28;20052;-40
2022/08/31 10:28:54;;;;;;;8.50;6.60;;;21.20;80.80;;;24.10;46.53;97987.69;5031459;28;20345;-40
2022/08/31 10:31:42;;;;;;;7.32;6.53;;;21.30;79.10;;;24.13;45.88;97979.03;5002380;28;20056;-40
2022/08/31 10:37:48;;;;;;;10.38;6.47;;;21.20;76.80;;;24.05;45.85;97979.41;5027923;28;20054;-40
2022/08/31 10:40:30;;;;;;;8.93;6.50;;;21.20;77.00;;;23.99;46.21;97975.75;5032999;28;20050;-40
2022/08/31 10:43:20;;;;;;;8.27;6.60;;;21.20;77.90;;;24.10;45.58;97979.53;5035497;28;20053;-40
2022/08/31 10:45:52;;;;;;;9.38;6.28;;;21.30;75.30;;;24.09;45.80;97984.13;5036240;28;20324;-40
2022/08/31 10:48:24;;;;;;;10.02;6.10;;;21.30;77.00;;;24.05;45.50;97977.50;5006077;28;20048;-40
2022/08/31 10:51:18;;;;;;;9.02;6.78;;;21.20;75.20;;;23.98;45.33;97976.81;5006078;28;20065;-40
2022/08/31 10:54:29;;;;;;;9.02;6.43;;;21.00;75.60;;;24.01;45.54;97983.69;5034526;28;20042;-39
2022/08/31 10:57:28;;;;;;;8.50;6.68;;;21.00;76.60;;;24.08;45.62;97982.47;5006118;28;20352;-40
2022/08/31 11:00:07;;;;;;;7.65;6.18;;;21.10;77.10;;;24.09;45.59;97980.56;5002005;28;20068;-40
2022/08/31 11:03:12;;;;;;;8.30;7.43;;;21.30;76.40;;;24.11;45.32;97981.97;5004957;28;20056;-40
2022/08/31 11:06:02;;;;;;;7.55;6.25;;;21.30;75.70;;;24.25;45.61;97968.94;5035400;28;20042;-40
2022/08/31 11:09:14;;;;;;;7.70;6.72;;;21.40;75.20;;;24.33;45.68;97976.72;5005481;28;20046;-40
2022/08/31 11:12:06;;;;;;;9.18;6.45;;;21.60;74.60;;;24.49;45.23;97979.75;5005784;28;20053;-40